map of TOS home
TOS - Airport
Location
City:  Tromsų, Norway
Name:Langnes
ICAO:ENTC
IATA:TOS

Details
Type:Airport (Aerodrome, Airfield)
Use:Public/Civil
Latitude:69°41'00"N (69.683333)
Longitude:18°55'08"E (18.918919)
Datum:WGS 1984
Elevation:31 ft (9 m)
Variation:8.80°E (WMM2015 magnetic declination)
0.23° annual change
Runways:1
Longest:7848 × 148 ft (2392 × 45 m), paved

Time
Time Zone:UTC+1 (DST+2)
Local Time:

Weather
METAR:ENTC 111450Z 18013KT CAVOK 00/M05 Q0996 NOSIG RMK WIND 2600FT 19018KT
TAF:ENTC 111100Z 1112/1212 20009KT CAVOK
TEMPO 1115/1203 20019KT

Related Locations
Nearby:
Farthest:NZTB: 11631 mi / 18718 km
Terra Nova Bay [Mario Zucchelli Station], AQ

Find:

   beyond  
but within

Other Information
Maps:
NOTAMs:
Links:
Sources:

  
flag of Norway   

Sectional Chart

Flight Planning
at skyvector.com

Satellite Image

Google Maps Satellite view

 

Copyright © 2004-2017 Karl L. Swartz. All rights reserved.
The Great Circle Mapper name and logo are trademarks of the Great Circle Mapper.
All other trademarks mentioned herein belong to their respective owners.
Please see credits for attibutions and further copyright information.

  Follow gcmap on Facebook Follow gcmap on Twitter Follow gcmap on Google+ GCmap on LinkedIn

hCard Microformat

Geo Microformat